Startpagina
METAR-TAF:

METAR-TAF

Vliegvelden :

Internationale Luchthaven Antwerpen

Antwerpen, België

breedte: 51-12N, lengte: 004-28E, hoogte: 12 m

Actueel weer

Dit bericht is 22 minuten geleden gemaakt, om 04:50 UTC
Wind 2 kt uit het noordnoordoosten
Temperatuur -2°C
Vochtigheid 93%
Druk 1027 hPa
Zicht 10 km of meer
geen wolken onder 1500 m en geen cumulonimbus

METAR: EBAW 070450Z AUTO 02002KT CAVOK M02/M03 Q1027

Tijdstip: 06:12 (05:12 UTC)

Verwachting

Dit bericht is 2 uur en het 52 minuten geleden gemaakt, om 02:20 UTC
Verwachting geldig van 07 om 03 UTC tot 07 om 12 UTC
Wind 4 kt uit het noordnoordoosten
Zicht 10 km of meer
geen wolken onder 1500 m en geen cumulonimbus
Kans 30% :
Tijdelijke
van 07 om 04 UTC tot 07 om 09 UTC
Zicht: 1200 m
mistbanken

TAF: EBAW 070220Z 0703/0712 03004KT CAVOK PROB30 TEMPO 0704/0709 1200 BCFG

Waarnemingen en weersverwachtingen van meer dan 4000 vliegvelden (METAR en TAF).

De beschikbare stations zijn de gele en rode punten op de kaart.

Ga met uw muis naar het station om de naam te zien.

Klik dan om waarnemingen en weersverwachtingen te zien.

kaart wijzigen: klik op de groene knoppen met een zwart kruis om in te zoomen, op de groene knop met een streepje om uit te zoomen of op de groene pijlen voor aangrenzende kaarten.


METAR-TAF: